createdAt,value
2023-03-15T00:02:03.280Z,90.29
2023-03-15T00:04:34.628Z,90.26
2023-03-15T00:07:02.245Z,90.43
2023-03-15T00:09:29.826Z,90.18
2023-03-15T00:11:57.348Z,90.47
2023-03-15T00:14:24.958Z,90.31
2023-03-15T00:16:54.855Z,90.30
2023-03-15T00:19:22.357Z,90.00
2023-03-15T00:21:49.908Z,90.19
2023-03-15T00:24:17.498Z,90.39
2023-03-15T00:26:45.011Z,90.30
2023-03-15T00:29:12.764Z,90.26
2023-03-15T00:31:40.337Z,90.37
2023-03-15T00:34:07.870Z,89.96
2023-03-15T00:36:35.451Z,90.32
2023-03-15T00:39:05.239Z,89.93
2023-03-15T00:41:33.813Z,90.38
2023-03-15T00:44:02.134Z,89.89
2023-03-15T00:46:30.994Z,90.00
2023-03-15T00:48:58.635Z,90.23
2023-03-15T00:51:26.203Z,90.49
2023-03-15T00:53:54.085Z,90.46
2023-03-15T00:56:24.932Z,90.64
2023-03-15T00:58:53.193Z,90.71
2023-03-15T01:01:27.399Z,90.43
2023-03-15T01:03:56.189Z,90.60
2023-03-15T01:06:29.455Z,90.53
2023-03-15T01:08:59.362Z,90.64
2023-03-15T01:11:28.503Z,90.57
2023-03-15T01:13:59.216Z,90.32
2023-03-15T01:16:27.906Z,90.65
2023-03-15T01:18:56.176Z,90.41
2023-03-15T01:21:24.192Z,90.65
2023-03-15T01:23:51.777Z,90.74
2023-03-15T01:26:23.035Z,90.59
2023-03-15T01:28:50.985Z,90.53
2023-03-15T01:31:21.414Z,90.81
2023-03-15T01:33:49.186Z,90.79
2023-03-15T01:36:17.111Z,90.60
2023-03-15T01:38:44.869Z,90.55
2023-03-15T01:41:14.410Z,90.86
2023-03-15T01:43:49.674Z,90.68
2023-03-15T01:46:28.287Z,90.54
2023-03-15T01:49:14.103Z,90.69
2023-03-15T01:52:10.272Z,90.67
2023-03-15T01:54:56.113Z,90.77
2023-03-15T01:57:27.042Z,90.92
2023-03-15T02:00:07.904Z,90.92
2023-03-15T02:02:51.972Z,90.73
2023-03-15T02:05:28.881Z,90.78
2023-03-15T02:07:58.123Z,90.89
2023-03-15T02:10:38.542Z,90.45
2023-03-15T02:13:07.352Z,91.12
2023-03-15T02:15:35.088Z,91.12
2023-03-15T02:18:05.915Z,90.60
2023-03-15T02:21:25.063Z,90.96
2023-03-15T02:24:11.354Z,90.82
2023-03-15T02:26:44.209Z,90.84
2023-03-15T02:29:12.285Z,91.06
2023-03-15T02:31:40.343Z,90.72
2023-03-15T02:34:08.762Z,90.84
2023-03-15T02:36:37.560Z,90.94
2023-03-15T02:39:17.505Z,90.76
2023-03-15T02:41:52.171Z,90.83
2023-03-15T02:44:28.647Z,91.22
2023-03-15T02:47:03.563Z,91.12
2023-03-15T02:49:38.727Z,91.19
2023-03-15T02:52:08.656Z,91.20
2023-03-15T02:54:36.640Z,90.87
2023-03-15T02:57:05.234Z,91.15
2023-03-15T02:59:33.034Z,90.98
2023-03-15T03:02:00.795Z,91.04
2023-03-15T03:04:28.534Z,91.00
2023-03-15T03:06:56.471Z,91.14
2023-03-15T03:09:30.636Z,91.21
2023-03-15T03:11:58.326Z,91.27
2023-03-15T03:14:26.255Z,91.30
2023-03-15T03:16:53.840Z,91.45
2023-03-15T03:19:25.830Z,91.54
2023-03-15T03:21:54.532Z,91.37
2023-03-15T03:24:22.243Z,91.62
2023-03-15T03:26:49.881Z,91.71
2023-03-15T03:29:17.627Z,91.71
2023-03-15T03:31:48.131Z,91.41
2023-03-15T03:34:16.254Z,91.58
2023-03-15T03:36:44.259Z,91.44
2023-03-15T03:39:15.096Z,91.39
2023-03-15T03:41:44.180Z,91.48
2023-03-15T03:44:13.288Z,91.38
2023-03-15T03:46:42.428Z,91.27
2023-03-15T03:49:10.001Z,91.40
2023-03-15T03:51:37.872Z,91.58
2023-03-15T03:54:05.631Z,91.51
2023-03-15T03:56:33.342Z,91.49
2023-03-15T03:59:01.077Z,91.54
2023-03-15T04:01:40.404Z,91.58
2023-03-15T04:04:09.088Z,91.66
2023-03-15T04:06:36.836Z,91.69
2023-03-15T04:09:04.760Z,91.54
2023-03-15T04:11:42.747Z,91.52
2023-03-15T04:14:15.086Z,91.14
2023-03-15T04:16:44.918Z,91.57
2023-03-15T04:19:16.666Z,91.40
2023-03-15T04:21:47.488Z,91.67
2023-03-15T04:24:39.938Z,91.90
2023-03-15T04:27:29.430Z,91.81
2023-03-15T04:30:17.829Z,91.72
2023-03-15T04:32:58.920Z,91.40
2023-03-15T04:35:45.409Z,91.73
2023-03-15T04:38:35.570Z,91.93
2023-03-15T04:41:28.136Z,91.45
2023-03-15T04:44:18.701Z,91.99
2023-03-15T04:46:46.290Z,91.79
2023-03-15T04:49:32.347Z,91.82
2023-03-15T04:52:18.434Z,92.07
2023-03-15T04:55:06.947Z,92.25
2023-03-15T04:57:58.519Z,92.21
2023-03-15T05:00:45.190Z,92.17
2023-03-15T05:03:26.862Z,92.54
2023-03-15T05:05:54.397Z,92.50
2023-03-15T05:08:45.512Z,92.76
2023-03-15T05:11:22.445Z,92.75
2023-03-15T05:14:08.568Z,92.98
2023-03-15T05:16:55.951Z,93.08
2023-03-15T05:19:34.770Z,93.03
2023-03-15T05:22:25.893Z,93.33
2023-03-15T05:24:56.772Z,92.94
2023-03-15T05:27:56.826Z,92.76
2023-03-15T05:30:32.059Z,92.78
2023-03-15T05:33:07.020Z,92.80
2023-03-15T05:35:56.609Z,92.96
2023-03-15T05:38:31.344Z,92.98
2023-03-15T05:40:58.923Z,93.10
2023-03-15T05:43:55.409Z,92.87
2023-03-15T05:46:32.286Z,93.08
2023-03-15T05:49:11.174Z,93.22
2023-03-15T05:51:51.809Z,92.99
2023-03-15T05:54:30.607Z,92.88
2023-03-15T05:57:08.561Z,92.77
2023-03-15T05:59:49.058Z,92.94
2023-03-15T06:02:42.117Z,93.16
2023-03-15T06:05:33.195Z,93.12
2023-03-15T06:08:04.077Z,93.53
2023-03-15T06:10:33.972Z,93.44
2023-03-15T06:13:07.134Z,93.52
2023-03-15T06:15:34.853Z,93.28
2023-03-15T06:18:02.874Z,93.32
2023-03-15T06:20:32.125Z,93.34
2023-03-15T06:23:05.947Z,93.30
2023-03-15T06:25:42.147Z,93.34
2023-03-15T06:28:10.106Z,93.27
2023-03-15T06:30:41.787Z,93.03
2023-03-15T06:33:09.432Z,93.44
2023-03-15T06:35:37.221Z,93.55
2023-03-15T06:38:05.201Z,93.33
2023-03-15T06:40:32.831Z,93.36
2023-03-15T06:43:05.974Z,93.36
2023-03-15T06:45:35.047Z,93.42
2023-03-15T06:48:03.098Z,93.11
2023-03-15T06:50:40.607Z,93.29
2023-03-15T06:53:14.294Z,93.40
2023-03-15T06:55:42.013Z,93.45
2023-03-15T06:58:09.652Z,93.49
2023-03-15T07:00:37.498Z,93.45
2023-03-15T07:03:05.362Z,93.45
2023-03-15T07:05:33.102Z,93.57
2023-03-15T07:08:00.686Z,93.80
2023-03-15T07:10:28.272Z,93.95
2023-03-15T07:12:55.866Z,94.45
2023-03-15T07:15:23.377Z,94.11
2023-03-15T07:17:50.938Z,93.96
2023-03-15T07:20:18.488Z,94.26
2023-03-15T07:22:46.137Z,94.15
2023-03-15T07:25:13.871Z,93.82
2023-03-15T07:27:41.456Z,93.89
2023-03-15T07:30:09.940Z,94.49
2023-03-15T07:32:39.138Z,94.27
2023-03-15T07:35:06.953Z,94.66
2023-03-15T07:37:34.539Z,94.71
2023-03-15T07:40:09.795Z,94.64
2023-03-15T07:42:39.285Z,95.06
2023-03-15T07:45:09.445Z,94.96
2023-03-15T07:47:37.046Z,95.12
2023-03-15T07:50:05.898Z,94.89
2023-03-15T07:52:33.592Z,95.10
2023-03-15T07:55:01.306Z,95.09
2023-03-15T07:57:29.088Z,95.33
2023-03-15T07:59:56.806Z,95.00
2023-03-15T08:02:24.388Z,94.95
2023-03-15T08:04:51.974Z,95.24
2023-03-15T08:07:19.622Z,95.01
2023-03-15T08:09:47.296Z,94.95
2023-03-15T08:12:14.843Z,95.40
2023-03-15T08:14:42.444Z,95.36
2023-03-15T08:17:13.163Z,95.10
2023-03-15T08:19:40.757Z,95.12
2023-03-15T08:22:08.382Z,95.23
2023-03-15T08:24:36.807Z,94.90
2023-03-15T08:27:05.141Z,95.42
2023-03-15T08:29:33.260Z,95.04
2023-03-15T08:32:00.888Z,95.31
2023-03-15T08:34:28.551Z,95.30
2023-03-15T08:36:56.141Z,95.57
2023-03-15T08:39:24.060Z,95.11
2023-03-15T08:41:51.578Z,94.98
2023-03-15T08:44:19.638Z,95.09
2023-03-15T08:46:47.442Z,94.97
2023-03-15T08:49:15.132Z,94.84
2023-03-15T08:51:42.742Z,94.93
2023-03-15T08:54:10.542Z,94.97
2023-03-15T08:56:38.051Z,95.20
2023-03-15T08:59:05.638Z,95.08
2023-03-15T09:01:33.613Z,95.28
2023-03-15T09:04:02.429Z,95.47
2023-03-15T09:06:30.032Z,94.68
2023-03-15T09:08:57.756Z,95.24
2023-03-15T09:11:25.375Z,94.30
2023-03-15T09:13:52.939Z,94.46
2023-03-15T09:16:20.651Z,94.67
2023-03-15T09:18:48.328Z,94.81
2023-03-15T09:21:15.890Z,94.75
2023-03-15T09:23:43.506Z,94.48
2023-03-15T09:26:11.069Z,94.85
2023-03-15T09:28:38.665Z,94.85
2023-03-15T09:31:06.827Z,94.84
2023-03-15T09:33:34.526Z,94.80
2023-03-15T09:36:02.740Z,94.37
2023-03-15T09:38:31.085Z,94.46
2023-03-15T09:40:59.896Z,94.84
2023-03-15T09:43:42.808Z,94.34
2023-03-15T09:46:35.370Z,94.51
2023-03-15T09:49:37.508Z,94.27
2023-03-15T09:52:20.925Z,94.06
2023-03-15T09:55:13.022Z,93.92
2023-03-15T09:58:01.899Z,94.43
2023-03-15T10:00:40.098Z,94.39
2023-03-15T10:03:18.431Z,94.13
2023-03-15T10:05:52.340Z,94.17
2023-03-15T10:08:20.338Z,93.21
2023-03-15T10:10:57.215Z,93.92
2023-03-15T10:13:51.102Z,93.08
2023-03-15T10:16:27.819Z,92.83
2023-03-15T10:19:19.009Z,92.64
2023-03-15T10:22:14.674Z,92.50
2023-03-15T10:25:00.629Z,92.59
2023-03-15T10:27:49.503Z,92.55
2023-03-15T10:30:23.672Z,92.79
2023-03-15T10:33:05.883Z,92.43
2023-03-15T10:35:33.585Z,92.82
2023-03-15T10:38:02.755Z,93.12
2023-03-15T10:40:43.120Z,92.34
2023-03-15T10:43:25.899Z,92.80
2023-03-15T10:46:05.773Z,92.45
2023-03-15T10:48:35.855Z,92.03
2023-03-15T10:51:28.906Z,92.65
2023-03-15T10:54:16.643Z,92.71
2023-03-15T10:56:58.136Z,92.03
2023-03-15T10:59:28.720Z,92.41
2023-03-15T11:02:23.480Z,92.00
2023-03-15T11:05:04.805Z,92.09
2023-03-15T11:07:36.006Z,91.33
2023-03-15T11:10:06.715Z,91.25
2023-03-15T11:12:35.081Z,91.84
2023-03-15T11:15:05.257Z,91.27
2023-03-15T11:17:36.767Z,91.43
2023-03-15T11:20:23.561Z,91.66
2023-03-15T11:22:53.739Z,91.03
2023-03-15T11:25:25.060Z,91.64
2023-03-15T11:27:53.813Z,91.21
2023-03-15T11:30:31.461Z,91.19
2023-03-15T11:33:06.954Z,91.20
2023-03-15T11:35:48.407Z,91.47
2023-03-15T11:38:30.484Z,90.59
2023-03-15T11:41:00.341Z,91.19
2023-03-15T11:43:54.089Z,91.20
2023-03-15T11:46:29.583Z,91.20
2023-03-15T11:49:10.875Z,91.48
2023-03-15T11:51:39.531Z,90.79
2023-03-15T11:54:29.230Z,90.26
2023-03-15T11:57:06.477Z,90.20
2023-03-15T11:59:38.000Z,90.15
2023-03-15T12:02:11.526Z,89.62
2023-03-15T12:04:47.893Z,89.18
2023-03-15T12:07:15.525Z,89.29
2023-03-15T12:10:19.782Z,88.19
2023-03-15T12:12:56.665Z,89.16
2023-03-15T12:15:27.451Z,88.83
2023-03-15T12:17:57.109Z,88.74
2023-03-15T12:20:30.550Z,86.91
2023-03-15T12:23:17.082Z,85.65
2023-03-15T12:25:57.322Z,85.29
2023-03-15T12:28:34.494Z,84.29
2023-03-15T12:31:06.020Z,83.95
2023-03-15T12:33:45.651Z,83.19
2023-03-15T12:36:31.538Z,82.75
2023-03-15T12:39:02.588Z,83.12
2023-03-15T12:41:36.828Z,83.22
2023-03-15T12:44:18.399Z,83.23
2023-03-15T12:46:46.282Z,83.77
2023-03-15T12:49:16.894Z,83.96
2023-03-15T12:51:57.364Z,83.76
2023-03-15T12:54:40.489Z,83.46
2023-03-15T12:57:12.208Z,83.24
2023-03-15T12:59:45.909Z,83.16
2023-03-15T13:02:42.883Z,81.11
2023-03-15T13:05:54.539Z,81.38
2023-03-15T13:09:05.953Z,80.38
2023-03-15T13:11:56.277Z,80.28
2023-03-15T13:14:44.898Z,80.12
2023-03-15T13:17:47.940Z,80.31
2023-03-15T13:20:37.450Z,80.00
2023-03-15T13:23:26.433Z,80.83
2023-03-15T13:26:03.009Z,81.29
2023-03-15T13:28:39.851Z,80.82
2023-03-15T13:31:22.404Z,80.17
2023-03-15T13:33:58.186Z,80.45
2023-03-15T13:36:47.018Z,79.18
2023-03-15T13:39:19.303Z,79.39
2023-03-15T13:41:47.509Z,79.16
2023-03-15T13:44:23.905Z,78.78
2023-03-15T13:46:53.531Z,78.79
2023-03-15T13:49:22.200Z,78.96
2023-03-15T13:51:53.293Z,78.66
2023-03-15T13:54:30.729Z,78.03
2023-03-15T13:57:06.350Z,77.85
2023-03-15T13:59:49.254Z,77.69
2023-03-15T14:02:21.871Z,78.40
2023-03-15T14:04:56.498Z,79.17
2023-03-15T14:07:36.567Z,78.03
2023-03-15T14:10:19.178Z,78.41
2023-03-15T14:12:46.880Z,78.87
2023-03-15T14:15:25.301Z,78.60
2023-03-15T14:18:13.318Z,79.29
2023-03-15T14:20:44.330Z,78.54
2023-03-15T14:23:15.372Z,78.59
2023-03-15T14:25:44.141Z,78.99
2023-03-15T14:28:15.747Z,79.40
2023-03-15T14:30:52.171Z,78.77
2023-03-15T14:33:54.195Z,78.72
2023-03-15T14:36:31.598Z,79.25
2023-03-15T14:38:59.902Z,79.72
2023-03-15T14:41:27.691Z,79.70
2023-03-15T14:43:55.283Z,79.59
2023-03-15T14:46:22.974Z,79.67
2023-03-15T14:48:51.350Z,79.07
2023-03-15T14:51:21.749Z,79.57
2023-03-15T14:53:54.435Z,79.64
2023-03-15T14:56:23.604Z,79.77
2023-03-15T14:58:54.229Z,80.52
2023-03-15T15:01:27.099Z,81.04
2023-03-15T15:03:59.875Z,80.84
2023-03-15T15:06:31.923Z,81.25
2023-03-15T15:09:01.586Z,81.37
2023-03-15T15:11:29.225Z,82.09
2023-03-15T15:13:57.801Z,82.41
2023-03-15T15:16:25.793Z,82.53
2023-03-15T15:18:53.419Z,82.87
2023-03-15T15:21:29.010Z,83.00
2023-03-15T15:23:59.350Z,82.65
2023-03-15T15:26:29.916Z,82.87
2023-03-15T15:28:58.189Z,83.09
2023-03-15T15:31:27.827Z,83.68
2023-03-15T15:33:57.526Z,84.67
2023-03-15T15:36:31.105Z,84.32
2023-03-15T15:39:07.137Z,84.56
2023-03-15T15:41:35.958Z,84.44
2023-03-15T15:44:04.019Z,84.24
2023-03-15T15:46:32.315Z,84.57
2023-03-15T15:49:00.119Z,85.84
2023-03-15T15:51:35.616Z,85.97
2023-03-15T15:54:03.381Z,86.86
2023-03-15T15:56:34.626Z,87.23
2023-03-15T15:59:04.884Z,87.98
2023-03-15T16:01:33.203Z,88.54
2023-03-15T16:04:02.367Z,88.72
2023-03-15T16:06:31.161Z,88.36
2023-03-15T16:08:59.023Z,88.45
2023-03-15T16:11:27.798Z,89.08
2023-03-15T16:13:55.579Z,89.64
2023-03-15T16:16:23.361Z,90.31
2023-03-15T16:18:51.173Z,89.83
2023-03-15T16:21:27.966Z,90.63
2023-03-15T16:24:03.505Z,90.79
2023-03-15T16:26:31.564Z,91.41
2023-03-15T16:28:59.170Z,91.64
2023-03-15T16:31:26.923Z,91.62
2023-03-15T16:33:54.540Z,91.48
2023-03-15T16:36:22.543Z,92.58
2023-03-15T16:38:50.864Z,92.36
2023-03-15T16:41:18.747Z,92.44
2023-03-15T16:43:49.086Z,92.16
2023-03-15T16:46:17.701Z,92.72
2023-03-15T16:48:45.459Z,92.34
2023-03-15T16:51:15.569Z,92.47
2023-03-15T16:53:45.180Z,93.29
2023-03-15T16:56:14.981Z,93.87
2023-03-15T16:58:44.437Z,93.37
2023-03-15T17:01:12.215Z,93.28
2023-03-15T17:03:40.062Z,93.90
2023-03-15T17:06:17.843Z,94.00
2023-03-15T17:08:46.471Z,93.66
2023-03-15T17:11:14.166Z,93.82
2023-03-15T17:13:42.379Z,93.59
2023-03-15T17:16:12.600Z,94.27
2023-03-15T17:18:41.905Z,93.71
2023-03-15T17:21:15.767Z,94.66
2023-03-15T17:23:44.098Z,94.10
2023-03-15T17:26:17.476Z,94.81
2023-03-15T17:28:45.776Z,94.52
2023-03-15T17:31:26.126Z,94.43
2023-03-15T17:33:53.765Z,94.50
2023-03-15T17:36:24.616Z,94.91
2023-03-15T17:38:53.476Z,94.82
2023-03-15T17:41:24.465Z,95.66
2023-03-15T17:43:52.773Z,95.69
2023-03-15T17:46:28.195Z,95.14
2023-03-15T17:49:00.494Z,95.91
2023-03-15T17:51:31.124Z,95.71
2023-03-15T17:53:59.683Z,95.54
2023-03-15T17:56:29.912Z,96.39
2023-03-15T17:58:57.636Z,95.93
2023-03-15T18:01:28.705Z,96.73
2023-03-15T18:03:57.274Z,96.60
2023-03-15T18:06:25.118Z,96.64
2023-03-15T18:08:53.046Z,96.93
2023-03-15T18:11:46.084Z,97.15
2023-03-15T18:14:15.705Z,97.52
2023-03-15T18:16:43.718Z,97.39
2023-03-15T18:19:12.951Z,97.30
2023-03-15T18:21:40.666Z,97.01
2023-03-15T18:24:11.416Z,97.24
2023-03-15T18:26:39.112Z,97.70
2023-03-15T18:29:06.713Z,98.13
2023-03-15T18:31:35.523Z,97.88
2023-03-15T18:34:03.718Z,98.01
2023-03-15T18:36:31.763Z,97.64
2023-03-15T18:38:59.529Z,98.35
2023-03-15T18:41:27.226Z,98.00
2023-03-15T18:43:54.827Z,97.97
2023-03-15T18:46:24.705Z,97.95
2023-03-15T18:48:53.604Z,98.13
2023-03-15T18:51:25.789Z,98.54
2023-03-15T18:53:54.278Z,98.61
2023-03-15T18:56:28.580Z,98.77
2023-03-15T18:58:56.348Z,98.60
2023-03-15T19:01:24.646Z,98.49
2023-03-15T19:03:54.382Z,98.83
2023-03-15T19:06:23.449Z,98.78
2023-03-15T19:08:54.358Z,98.36
2023-03-15T19:11:24.031Z,98.05
2023-03-15T19:13:51.997Z,98.42
2023-03-15T19:16:23.325Z,98.65
2023-03-15T19:18:52.124Z,98.96
2023-03-15T19:21:19.856Z,98.96
2023-03-15T19:23:48.149Z,98.69
2023-03-15T19:26:15.736Z,98.29
2023-03-15T19:28:43.783Z,98.86
2023-03-15T19:31:11.576Z,98.94
2023-03-15T19:33:39.307Z,98.96
2023-03-15T19:36:07.393Z,98.90
2023-03-15T19:38:35.358Z,99.38
2023-03-15T19:41:04.927Z,99.28
2023-03-15T19:43:32.817Z,99.54
2023-03-15T19:46:01.636Z,99.35
2023-03-15T19:48:29.256Z,100.00
2023-03-15T19:50:56.853Z,99.59
2023-03-15T19:53:24.953Z,99.78
2023-03-15T19:55:52.476Z,99.96
2023-03-15T19:58:20.238Z,100.00
2023-03-15T20:00:49.510Z,99.76
2023-03-15T20:03:17.240Z,100.00
2023-03-15T20:05:45.373Z,99.67
2023-03-15T20:08:13.317Z,99.81
2023-03-15T20:10:40.910Z,99.90
2023-03-15T20:13:09.971Z,100.00
2023-03-15T20:15:37.970Z,99.71
2023-03-15T20:18:08.256Z,99.76
2023-03-15T20:20:36.080Z,100.00
2023-03-15T20:23:03.808Z,100.00
2023-03-15T20:25:31.735Z,99.64
2023-03-15T20:27:59.534Z,100.00
2023-03-15T20:30:27.397Z,100.00
2023-03-15T20:32:55.610Z,100.00
2023-03-15T20:35:23.369Z,100.00
2023-03-15T20:37:53.501Z,100.00
2023-03-15T20:40:22.418Z,100.00
2023-03-15T20:42:50.384Z,100.00
2023-03-15T20:45:18.328Z,100.00
2023-03-15T20:47:45.957Z,100.00
2023-03-15T20:50:13.613Z,100.00
2023-03-15T20:52:42.872Z,100.00
2023-03-15T20:55:12.253Z,100.00
2023-03-15T20:57:42.712Z,100.00
2023-03-15T21:00:18.991Z,100.00
2023-03-15T21:02:48.001Z,100.00
2023-03-15T21:05:16.723Z,100.00
2023-03-15T21:07:45.701Z,100.00
2023-03-15T21:10:14.144Z,100.00
2023-03-15T21:12:42.440Z,100.00
2023-03-15T21:15:15.521Z,100.00
2023-03-15T21:17:44.239Z,100.00
2023-03-15T21:20:15.573Z,100.00
2023-03-15T21:22:43.833Z,100.00
2023-03-15T21:25:11.594Z,100.00
2023-03-15T21:27:39.561Z,100.00
2023-03-15T21:30:08.281Z,100.00
2023-03-15T21:32:38.718Z,100.00
2023-03-15T21:35:07.813Z,100.00
2023-03-15T21:37:35.627Z,100.00
2023-03-15T21:40:05.250Z,100.00
2023-03-15T21:42:34.213Z,100.00
2023-03-15T21:45:02.047Z,100.00
2023-03-15T21:47:29.763Z,100.00
2023-03-15T21:49:57.478Z,100.00
2023-03-15T21:52:26.440Z,100.00
2023-03-15T21:54:54.533Z,100.00
2023-03-15T21:57:22.258Z,100.00
2023-03-15T21:59:50.229Z,100.00
2023-03-15T22:02:17.873Z,100.00
2023-03-15T22:04:45.501Z,100.00
2023-03-15T22:07:13.198Z,100.00
2023-03-15T22:09:41.920Z,100.00
2023-03-15T22:12:09.816Z,100.00
2023-03-15T22:14:37.513Z,100.00
2023-03-15T22:17:05.269Z,100.00
2023-03-15T22:19:33.005Z,100.00
2023-03-15T22:22:01.149Z,100.00
2023-03-15T22:24:29.136Z,100.00
2023-03-15T22:26:57.140Z,100.00
2023-03-15T22:29:24.793Z,100.00
2023-03-15T22:31:52.419Z,100.00
2023-03-15T22:34:20.117Z,100.00
2023-03-15T22:36:47.772Z,100.00
2023-03-15T22:39:15.323Z,100.00
2023-03-15T22:41:42.884Z,100.00
2023-03-15T22:44:10.542Z,100.00
2023-03-15T22:46:38.290Z,100.00
2023-03-15T22:49:05.902Z,100.00
2023-03-15T22:51:33.567Z,100.00
2023-03-15T22:54:01.202Z,100.00
2023-03-15T22:56:28.893Z,100.00
2023-03-15T22:58:56.559Z,100.00
2023-03-15T23:01:24.528Z,100.00
2023-03-15T23:03:52.288Z,100.00
2023-03-15T23:06:20.196Z,100.00
2023-03-15T23:08:48.256Z,100.00
2023-03-15T23:11:15.813Z,100.00
2023-03-15T23:13:43.522Z,100.00
2023-03-15T23:16:11.290Z,100.00
2023-03-15T23:18:38.899Z,100.00
2023-03-15T23:21:08.599Z,100.00
2023-03-15T23:23:36.832Z,100.00
2023-03-15T23:26:05.850Z,100.00
2023-03-15T23:28:34.432Z,100.00
2023-03-15T23:31:04.151Z,100.00
2023-03-15T23:33:35.692Z,100.00
2023-03-15T23:36:07.092Z,100.00
2023-03-15T23:38:34.924Z,100.00
2023-03-15T23:41:02.856Z,100.00
2023-03-15T23:43:31.388Z,100.00
2023-03-15T23:46:00.405Z,100.00
2023-03-15T23:48:27.973Z,100.00
2023-03-15T23:50:58.897Z,100.00
2023-03-15T23:53:26.538Z,100.00
2023-03-15T23:55:54.289Z,100.00
2023-03-15T23:58:21.936Z,100.00
